sensor_id;sensor_type;location;lat;lon;timestamp;temperature;humidity
21815;DHT22;11069;48.988;8.450;2022-11-06T00:00:35;4.30;99.90
21815;DHT22;11069;48.988;8.450;2022-11-06T00:03:01;4.20;99.90
21815;DHT22;11069;48.988;8.450;2022-11-06T00:05:27;4.20;99.90
21815;DHT22;11069;48.988;8.450;2022-11-06T00:08:12;4.30;99.90
21815;DHT22;11069;48.988;8.450;2022-11-06T00:10:38;4.30;99.90
21815;DHT22;11069;48.988;8.450;2022-11-06T00:13:03;4.30;99.90
21815;DHT22;11069;48.988;8.450;2022-11-06T00:15:29;4.40;99.90
21815;DHT22;11069;48.988;8.450;2022-11-06T00:17:55;4.50;99.90
21815;DHT22;11069;48.988;8.450;2022-11-06T00:20:21;4.50;99.90
21815;DHT22;11069;48.988;8.450;2022-11-06T00:22:46;4.50;99.90
21815;DHT22;11069;48.988;8.450;2022-11-06T00:25:12;4.30;99.90
21815;DHT22;11069;48.988;8.450;2022-11-06T00:27:38;4.30;99.90
21815;DHT22;11069;48.988;8.450;2022-11-06T00:30:05;4.30;99.90
21815;DHT22;11069;48.988;8.450;2022-11-06T00:32:31;4.10;99.90
21815;DHT22;11069;48.988;8.450;2022-11-06T00:34:57;3.90;99.90
21815;DHT22;11069;48.988;8.450;2022-11-06T00:37:23;3.80;99.90
21815;DHT22;11069;48.988;8.450;2022-11-06T00:39:48;3.90;99.90
21815;DHT22;11069;48.988;8.450;2022-11-06T00:42:14;3.80;99.90
21815;DHT22;11069;48.988;8.450;2022-11-06T00:44:39;3.70;99.90
21815;DHT22;11069;48.988;8.450;2022-11-06T00:47:05;3.60;99.90
21815;DHT22;11069;48.988;8.450;2022-11-06T00:49:33;3.70;99.90
21815;DHT22;11069;48.988;8.450;2022-11-06T00:51:59;3.60;99.90
21815;DHT22;11069;48.988;8.450;2022-11-06T00:54:25;3.60;99.90
21815;DHT22;11069;48.988;8.450;2022-11-06T00:56:51;3.50;99.90
21815;DHT22;11069;48.988;8.450;2022-11-06T00:59:16;3.40;99.90
21815;DHT22;11069;48.988;8.450;2022-11-06T01:01:44;3.40;99.90
21815;DHT22;11069;48.988;8.450;2022-11-06T01:04:15;3.40;99.90
21815;DHT22;11069;48.988;8.450;2022-11-06T01:06:43;3.40;99.90
21815;DHT22;11069;48.988;8.450;2022-11-06T01:09:14;3.30;99.90
21815;DHT22;11069;48.988;8.450;2022-11-06T01:11:43;3.30;99.90
21815;DHT22;11069;48.988;8.450;2022-11-06T01:14:11;3.20;99.90
21815;DHT22;11069;48.988;8.450;2022-11-06T01:16:38;3.20;99.90
21815;DHT22;11069;48.988;8.450;2022-11-06T01:19:07;3.20;99.90
21815;DHT22;11069;48.988;8.450;2022-11-06T01:21:38;3.40;99.90
21815;DHT22;11069;48.988;8.450;2022-11-06T01:24:07;3.30;99.90
21815;DHT22;11069;48.988;8.450;2022-11-06T01:26:33;3.20;99.90
21815;DHT22;11069;48.988;8.450;2022-11-06T01:28:59;3.20;99.90
21815;DHT22;11069;48.988;8.450;2022-11-06T01:31:28;3.20;99.90
21815;DHT22;11069;48.988;8.450;2022-11-06T01:33:55;3.30;99.90
21815;DHT22;11069;48.988;8.450;2022-11-06T01:36:21;3.30;99.90
21815;DHT22;11069;48.988;8.450;2022-11-06T01:38:49;3.20;99.90
21815;DHT22;11069;48.988;8.450;2022-11-06T01:41:18;3.10;99.90
21815;DHT22;11069;48.988;8.450;2022-11-06T01:46:22;3.00;99.90
21815;DHT22;11069;48.988;8.450;2022-11-06T01:48:55;3.00;99.90
21815;DHT22;11069;48.988;8.450;2022-11-06T01:51:24;3.00;99.90
21815;DHT22;11069;48.988;8.450;2022-11-06T01:53:50;3.20;99.90
21815;DHT22;11069;48.988;8.450;2022-11-06T01:56:16;3.00;99.90
21815;DHT22;11069;48.988;8.450;2022-11-06T01:58:44;3.00;99.90
21815;DHT22;11069;48.988;8.450;2022-11-06T02:01:10;3.00;99.90
21815;DHT22;11069;48.988;8.450;2022-11-06T02:03:37;2.90;99.90
21815;DHT22;11069;48.988;8.450;2022-11-06T02:06:06;2.90;99.90
21815;DHT22;11069;48.988;8.450;2022-11-06T02:08:32;2.90;99.90
21815;DHT22;11069;48.988;8.450;2022-11-06T02:10:58;2.80;99.90
21815;DHT22;11069;48.988;8.450;2022-11-06T02:13:47;2.90;99.90
21815;DHT22;11069;48.988;8.450;2022-11-06T02:27:22;2.90;99.90
21815;DHT22;11069;48.988;8.450;2022-11-06T02:29:54;3.00;99.90
21815;DHT22;11069;48.988;8.450;2022-11-06T02:37:43;3.60;99.90
21815;DHT22;11069;48.988;8.450;2022-11-06T02:40:11;3.80;99.90
21815;DHT22;11069;48.988;8.450;2022-11-06T02:42:41;3.80;99.90
21815;DHT22;11069;48.988;8.450;2022-11-06T02:45:09;3.90;99.90
21815;DHT22;11069;48.988;8.450;2022-11-06T02:47:35;3.80;99.90
21815;DHT22;11069;48.988;8.450;2022-11-06T02:50:18;3.90;99.90
21815;DHT22;11069;48.988;8.450;2022-11-06T02:52:52;3.90;99.90
21815;DHT22;11069;48.988;8.450;2022-11-06T02:55:27;3.80;99.90
21815;DHT22;11069;48.988;8.450;2022-11-06T02:57:57;3.80;99.90
21815;DHT22;11069;48.988;8.450;2022-11-06T03:00:25;3.80;99.90
21815;DHT22;11069;48.988;8.450;2022-11-06T03:03:07;3.80;99.90
21815;DHT22;11069;48.988;8.450;2022-11-06T03:05:48;3.80;99.90
21815;DHT22;11069;48.988;8.450;2022-11-06T03:08:43;3.70;99.90
21815;DHT22;11069;48.988;8.450;2022-11-06T03:11:27;3.70;99.90
21815;DHT22;11069;48.988;8.450;2022-11-06T03:14:15;3.70;99.90
21815;DHT22;11069;48.988;8.450;2022-11-06T03:17:08;3.70;99.90
21815;DHT22;11069;48.988;8.450;2022-11-06T03:24:54;3.70;99.90
21815;DHT22;11069;48.988;8.450;2022-11-06T03:27:31;3.60;99.90
21815;DHT22;11069;48.988;8.450;2022-11-06T03:30:04;3.50;99.90
21815;DHT22;11069;48.988;8.450;2022-11-06T03:35:12;3.40;99.90
21815;DHT22;11069;48.988;8.450;2022-11-06T03:37:40;3.50;99.90
21815;DHT22;11069;48.988;8.450;2022-11-06T03:40:12;3.40;99.90
21815;DHT22;11069;48.988;8.450;2022-11-06T03:42:42;3.50;99.90
21815;DHT22;11069;48.988;8.450;2022-11-06T03:45:14;3.50;99.90
21815;DHT22;11069;48.988;8.450;2022-11-06T03:47:51;3.50;99.90
21815;DHT22;11069;48.988;8.450;2022-11-06T03:50:27;3.60;99.90
21815;DHT22;11069;48.988;8.450;2022-11-06T03:53:16;3.50;99.90
21815;DHT22;11069;48.988;8.450;2022-11-06T03:55:52;3.40;99.90
21815;DHT22;11069;48.988;8.450;2022-11-06T03:58:23;3.40;99.90
21815;DHT22;11069;48.988;8.450;2022-11-06T04:00:51;3.30;99.90
21815;DHT22;11069;48.988;8.450;2022-11-06T04:03:25;3.30;99.90
21815;DHT22;11069;48.988;8.450;2022-11-06T04:08:31;2.90;99.90
21815;DHT22;11069;48.988;8.450;2022-11-06T04:11:18;2.70;99.90
21815;DHT22;11069;48.988;8.450;2022-11-06T04:14:05;2.70;99.90
21815;DHT22;11069;48.988;8.450;2022-11-06T04:16:41;2.60;99.90
21815;DHT22;11069;48.988;8.450;2022-11-06T04:19:18;2.70;99.90
21815;DHT22;11069;48.988;8.450;2022-11-06T04:21:53;2.80;99.90
21815;DHT22;11069;48.988;8.450;2022-11-06T04:30:20;2.60;99.90
21815;DHT22;11069;48.988;8.450;2022-11-06T04:36:34;2.60;99.90
21815;DHT22;11069;48.988;8.450;2022-11-06T04:42:17;2.50;99.90
21815;DHT22;11069;48.988;8.450;2022-11-06T04:44:49;2.50;99.90
21815;DHT22;11069;48.988;8.450;2022-11-06T04:47:18;2.30;99.90
21815;DHT22;11069;48.988;8.450;2022-11-06T04:49:48;2.30;99.90
21815;DHT22;11069;48.988;8.450;2022-11-06T04:52:19;2.20;99.90
21815;DHT22;11069;48.988;8.450;2022-11-06T04:54:45;2.10;99.90
21815;DHT22;11069;48.988;8.450;2022-11-06T04:57:11;2.00;99.90
21815;DHT22;11069;48.988;8.450;2022-11-06T04:59:37;2.00;99.90
21815;DHT22;11069;48.988;8.450;2022-11-06T05:02:04;2.00;99.90
21815;DHT22;11069;48.988;8.450;2022-11-06T05:04:30;2.00;99.90
21815;DHT22;11069;48.988;8.450;2022-11-06T05:06:58;2.00;99.90
21815;DHT22;11069;48.988;8.450;2022-11-06T05:09:24;2.00;99.90
21815;DHT22;11069;48.988;8.450;2022-11-06T05:11:50;2.00;99.90
21815;DHT22;11069;48.988;8.450;2022-11-06T05:14:16;2.00;99.90
21815;DHT22;11069;48.988;8.450;2022-11-06T05:16:42;1.90;99.90
21815;DHT22;11069;48.988;8.450;2022-11-06T05:19:11;1.80;99.90
21815;DHT22;11069;48.988;8.450;2022-11-06T05:21:36;1.90;99.90
21815;DHT22;11069;48.988;8.450;2022-11-06T05:24:20;1.80;99.90
21815;DHT22;11069;48.988;8.450;2022-11-06T05:26:46;1.70;99.90
21815;DHT22;11069;48.988;8.450;2022-11-06T05:29:12;1.60;99.90
21815;DHT22;11069;48.988;8.450;2022-11-06T05:31:37;1.50;99.90
21815;DHT22;11069;48.988;8.450;2022-11-06T05:34:03;1.50;99.90
21815;DHT22;11069;48.988;8.450;2022-11-06T05:36:31;1.50;99.90
21815;DHT22;11069;48.988;8.450;2022-11-06T05:38:56;1.70;99.90
21815;DHT22;11069;48.988;8.450;2022-11-06T05:41:22;1.70;99.90
21815;DHT22;11069;48.988;8.450;2022-11-06T05:43:48;1.60;99.90
21815;DHT22;11069;48.988;8.450;2022-11-06T05:46:13;1.50;99.90
21815;DHT22;11069;48.988;8.450;2022-11-06T05:48:39;1.40;99.90
21815;DHT22;11069;48.988;8.450;2022-11-06T05:51:06;1.40;99.90
21815;DHT22;11069;48.988;8.450;2022-11-06T05:53:33;1.40;99.90
21815;DHT22;11069;48.988;8.450;2022-11-06T05:55:59;1.40;99.90
21815;DHT22;11069;48.988;8.450;2022-11-06T05:58:25;1.40;99.90
21815;DHT22;11069;48.988;8.450;2022-11-06T06:00:52;1.40;99.90
21815;DHT22;11069;48.988;8.450;2022-11-06T06:03:18;1.50;99.90
21815;DHT22;11069;48.988;8.450;2022-11-06T06:05:45;1.60;99.90
21815;DHT22;11069;48.988;8.450;2022-11-06T06:08:11;1.70;99.90
21815;DHT22;11069;48.988;8.450;2022-11-06T06:10:41;1.60;99.90
21815;DHT22;11069;48.988;8.450;2022-11-06T06:13:07;1.50;99.90
21815;DHT22;11069;48.988;8.450;2022-11-06T06:15:33;1.40;99.90
21815;DHT22;11069;48.988;8.450;2022-11-06T06:18:02;1.50;99.90
21815;DHT22;11069;48.988;8.450;2022-11-06T06:20:27;1.40;99.90
21815;DHT22;11069;48.988;8.450;2022-11-06T06:22:57;1.60;99.90
21815;DHT22;11069;48.988;8.450;2022-11-06T06:25:26;1.50;99.90
21815;DHT22;11069;48.988;8.450;2022-11-06T06:27:52;1.50;99.90
21815;DHT22;11069;48.988;8.450;2022-11-06T06:30:19;1.40;99.90
21815;DHT22;11069;48.988;8.450;2022-11-06T06:32:45;1.30;99.90
21815;DHT22;11069;48.988;8.450;2022-11-06T06:35:10;1.30;99.90
21815;DHT22;11069;48.988;8.450;2022-11-06T06:37:36;1.50;99.90
21815;DHT22;11069;48.988;8.450;2022-11-06T06:40:03;1.50;99.90
21815;DHT22;11069;48.988;8.450;2022-11-06T06:42:29;1.60;99.90
21815;DHT22;11069;48.988;8.450;2022-11-06T06:44:55;1.60;99.90
21815;DHT22;11069;48.988;8.450;2022-11-06T06:47:21;1.60;99.90
21815;DHT22;11069;48.988;8.450;2022-11-06T06:49:47;1.60;99.90
21815;DHT22;11069;48.988;8.450;2022-11-06T06:52:12;1.70;99.90
21815;DHT22;11069;48.988;8.450;2022-11-06T06:54:38;2.00;99.90
21815;DHT22;11069;48.988;8.450;2022-11-06T06:57:07;2.00;99.90
21815;DHT22;11069;48.988;8.450;2022-11-06T06:59:33;2.10;99.90
21815;DHT22;11069;48.988;8.450;2022-11-06T07:02:08;2.40;99.90
21815;DHT22;11069;48.988;8.450;2022-11-06T07:04:36;2.70;99.90
21815;DHT22;11069;48.988;8.450;2022-11-06T07:07:02;2.80;99.90
21815;DHT22;11069;48.988;8.450;2022-11-06T07:09:31;2.90;99.90
21815;DHT22;11069;48.988;8.450;2022-11-06T07:11:57;3.10;99.90
21815;DHT22;11069;48.988;8.450;2022-11-06T07:14:22;3.30;99.90
21815;DHT22;11069;48.988;8.450;2022-11-06T07:16:48;3.60;99.90
21815;DHT22;11069;48.988;8.450;2022-11-06T07:19:14;3.90;99.90
21815;DHT22;11069;48.988;8.450;2022-11-06T07:21:39;4.00;99.90
21815;DHT22;11069;48.988;8.450;2022-11-06T07:24:05;4.10;99.90
21815;DHT22;11069;48.988;8.450;2022-11-06T07:26:30;4.10;99.90
21815;DHT22;11069;48.988;8.450;2022-11-06T07:28:56;4.10;99.90
21815;DHT22;11069;48.988;8.450;2022-11-06T07:31:21;4.20;99.90
21815;DHT22;11069;48.988;8.450;2022-11-06T07:33:47;4.50;99.90
21815;DHT22;11069;48.988;8.450;2022-11-06T07:36:13;4.80;99.90
21815;DHT22;11069;48.988;8.450;2022-11-06T07:38:40;5.20;99.90
21815;DHT22;11069;48.988;8.450;2022-11-06T07:41:08;5.60;99.90
21815;DHT22;11069;48.988;8.450;2022-11-06T07:43:34;5.90;99.90
21815;DHT22;11069;48.988;8.450;2022-11-06T07:46:03;6.10;99.90
21815;DHT22;11069;48.988;8.450;2022-11-06T07:48:29;6.10;99.90
21815;DHT22;11069;48.988;8.450;2022-11-06T07:50:56;6.10;99.90
21815;DHT22;11069;48.988;8.450;2022-11-06T07:53:22;6.30;99.90
21815;DHT22;11069;48.988;8.450;2022-11-06T07:55:49;6.60;99.90
21815;DHT22;11069;48.988;8.450;2022-11-06T07:58:14;6.80;99.90
21815;DHT22;11069;48.988;8.450;2022-11-06T08:00:45;6.90;99.90
21815;DHT22;11069;48.988;8.450;2022-11-06T08:03:11;6.80;99.90
21815;DHT22;11069;48.988;8.450;2022-11-06T08:05:36;6.80;99.90
21815;DHT22;11069;48.988;8.450;2022-11-06T08:08:02;6.90;99.90
21815;DHT22;11069;48.988;8.450;2022-11-06T08:10:27;6.90;99.90
21815;DHT22;11069;48.988;8.450;2022-11-06T08:12:53;7.30;99.90
21815;DHT22;11069;48.988;8.450;2022-11-06T08:15:18;7.50;99.90
21815;DHT22;11069;48.988;8.450;2022-11-06T08:17:44;7.40;99.90
21815;DHT22;11069;48.988;8.450;2022-11-06T08:20:10;7.60;99.90
21815;DHT22;11069;48.988;8.450;2022-11-06T08:22:35;7.40;99.90
21815;DHT22;11069;48.988;8.450;2022-11-06T08:25:01;7.30;99.90
21815;DHT22;11069;48.988;8.450;2022-11-06T08:27:27;7.30;99.90
21815;DHT22;11069;48.988;8.450;2022-11-06T08:29:52;7.10;99.90
21815;DHT22;11069;48.988;8.450;2022-11-06T08:32:18;7.40;99.90
21815;DHT22;11069;48.988;8.450;2022-11-06T08:34:43;7.60;99.90
21815;DHT22;11069;48.988;8.450;2022-11-06T08:37:09;7.50;99.90
21815;DHT22;11069;48.988;8.450;2022-11-06T08:39:35;7.60;99.90
21815;DHT22;11069;48.988;8.450;2022-11-06T08:42:02;7.80;99.90
21815;DHT22;11069;48.988;8.450;2022-11-06T08:44:28;7.70;99.90
21815;DHT22;11069;48.988;8.450;2022-11-06T08:46:54;8.00;99.90
21815;DHT22;11069;48.988;8.450;2022-11-06T08:49:19;8.70;99.90
21815;DHT22;11069;48.988;8.450;2022-11-06T08:51:45;8.70;99.90
21815;DHT22;11069;48.988;8.450;2022-11-06T08:54:12;8.30;99.90
21815;DHT22;11069;48.988;8.450;2022-11-06T08:56:37;8.30;99.90
21815;DHT22;11069;48.988;8.450;2022-11-06T08:59:03;8.30;99.90
21815;DHT22;11069;48.988;8.450;2022-11-06T09:01:29;8.10;99.90
21815;DHT22;11069;48.988;8.450;2022-11-06T09:03:55;8.40;99.90
21815;DHT22;11069;48.988;8.450;2022-11-06T09:06:21;8.80;99.90
21815;DHT22;11069;48.988;8.450;2022-11-06T09:08:46;9.10;99.90
21815;DHT22;11069;48.988;8.450;2022-11-06T09:11:12;9.40;99.90
21815;DHT22;11069;48.988;8.450;2022-11-06T09:13:38;9.80;99.90
21815;DHT22;11069;48.988;8.450;2022-11-06T09:16:04;10.20;99.90
21815;DHT22;11069;48.988;8.450;2022-11-06T09:18:30;10.50;99.90
21815;DHT22;11069;48.988;8.450;2022-11-06T09:20:56;10.50;99.90
21815;DHT22;11069;48.988;8.450;2022-11-06T09:23:23;10.50;99.90
21815;DHT22;11069;48.988;8.450;2022-11-06T09:25:49;10.70;99.90
21815;DHT22;11069;48.988;8.450;2022-11-06T09:28:15;11.00;99.90
21815;DHT22;11069;48.988;8.450;2022-11-06T09:30:41;10.50;99.90
21815;DHT22;11069;48.988;8.450;2022-11-06T09:33:09;10.70;99.90
21815;DHT22;11069;48.988;8.450;2022-11-06T09:35:35;10.20;99.90
21815;DHT22;11069;48.988;8.450;2022-11-06T09:38:12;10.70;99.90
21815;DHT22;11069;48.988;8.450;2022-11-06T09:40:52;11.10;99.90
21815;DHT22;11069;48.988;8.450;2022-11-06T09:43:35;11.40;99.90
21815;DHT22;11069;48.988;8.450;2022-11-06T09:46:36;10.90;99.90
21815;DHT22;11069;48.988;8.450;2022-11-06T09:54:46;10.30;99.90
21815;DHT22;11069;48.988;8.450;2022-11-06T10:00:06;9.90;99.90
21815;DHT22;11069;48.988;8.450;2022-11-06T10:02:50;10.10;99.90
21815;DHT22;11069;48.988;8.450;2022-11-06T10:05:36;9.80;99.90
21815;DHT22;11069;48.988;8.450;2022-11-06T10:08:05;9.70;99.90
21815;DHT22;11069;48.988;8.450;2022-11-06T10:10:53;10.00;99.90
21815;DHT22;11069;48.988;8.450;2022-11-06T10:27:03;9.70;99.90
21815;DHT22;11069;48.988;8.450;2022-11-06T10:29:50;9.70;99.90
21815;DHT22;11069;48.988;8.450;2022-11-06T10:38:22;9.80;99.90
21815;DHT22;11069;48.988;8.450;2022-11-06T10:40:48;10.10;99.90
21815;DHT22;11069;48.988;8.450;2022-11-06T10:46:09;10.30;99.90
21815;DHT22;11069;48.988;8.450;2022-11-06T10:48:41;10.50;99.90
21815;DHT22;11069;48.988;8.450;2022-11-06T10:51:20;10.60;99.90
21815;DHT22;11069;48.988;8.450;2022-11-06T10:56:36;11.20;99.90
21815;DHT22;11069;48.988;8.450;2022-11-06T10:59:06;11.20;99.90
21815;DHT22;11069;48.988;8.450;2022-11-06T11:01:32;11.50;99.90
21815;DHT22;11069;48.988;8.450;2022-11-06T11:03:58;11.40;99.90
21815;DHT22;11069;48.988;8.450;2022-11-06T11:06:24;11.10;99.90
21815;DHT22;11069;48.988;8.450;2022-11-06T11:08:50;11.40;99.90
21815;DHT22;11069;48.988;8.450;2022-11-06T11:11:26;11.60;99.90
21815;DHT22;11069;48.988;8.450;2022-11-06T11:16:31;11.70;99.90
21815;DHT22;11069;48.988;8.450;2022-11-06T11:25:25;12.20;99.90
21815;DHT22;11069;48.988;8.450;2022-11-06T11:27:51;12.70;99.90
21815;DHT22;11069;48.988;8.450;2022-11-06T11:30:22;12.90;99.90
21815;DHT22;11069;48.988;8.450;2022-11-06T11:32:51;12.30;99.90
21815;DHT22;11069;48.988;8.450;2022-11-06T11:35:24;11.90;99.90
21815;DHT22;11069;48.988;8.450;2022-11-06T11:37:51;11.50;99.90
21815;DHT22;11069;48.988;8.450;2022-11-06T11:40:37;11.50;99.90
21815;DHT22;11069;48.988;8.450;2022-11-06T11:48:25;12.20;99.90
21815;DHT22;11069;48.988;8.450;2022-11-06T11:50:51;12.30;99.90
21815;DHT22;11069;48.988;8.450;2022-11-06T11:53:19;12.30;99.90
21815;DHT22;11069;48.988;8.450;2022-11-06T11:55:48;12.60;99.90
21815;DHT22;11069;48.988;8.450;2022-11-06T11:58:22;12.80;99.90
21815;DHT22;11069;48.988;8.450;2022-11-06T12:00:52;12.70;99.90
21815;DHT22;11069;48.988;8.450;2022-11-06T12:03:18;12.50;99.90
21815;DHT22;11069;48.988;8.450;2022-11-06T12:05:45;12.70;99.90
21815;DHT22;11069;48.988;8.450;2022-11-06T12:08:20;12.70;99.90
21815;DHT22;11069;48.988;8.450;2022-11-06T12:10:46;12.70;99.90
21815;DHT22;11069;48.988;8.450;2022-11-06T12:15:59;12.80;99.90
21815;DHT22;11069;48.988;8.450;2022-11-06T12:18:35;12.50;99.90
21815;DHT22;11069;48.988;8.450;2022-11-06T12:21:05;12.30;99.90
21815;DHT22;11069;48.988;8.450;2022-11-06T12:29:03;12.50;99.90
21815;DHT22;11069;48.988;8.450;2022-11-06T12:31:43;12.30;99.90
21815;DHT22;11069;48.988;8.450;2022-11-06T12:34:14;12.10;99.90
21815;DHT22;11069;48.988;8.450;2022-11-06T12:36:47;12.20;99.90
21815;DHT22;11069;48.988;8.450;2022-11-06T12:39:18;12.30;99.90
21815;DHT22;11069;48.988;8.450;2022-11-06T12:41:49;12.40;99.90
21815;DHT22;11069;48.988;8.450;2022-11-06T12:44:15;12.50;99.90
21815;DHT22;11069;48.988;8.450;2022-11-06T12:56:18;12.40;99.90
21815;DHT22;11069;48.988;8.450;2022-11-06T13:01:41;12.40;99.90
21815;DHT22;11069;48.988;8.450;2022-11-06T13:09:46;12.30;99.90
21815;DHT22;11069;48.988;8.450;2022-11-06T13:12:26;12.10;99.90
21815;DHT22;11069;48.988;8.450;2022-11-06T13:15:11;12.10;99.90
21815;DHT22;11069;48.988;8.450;2022-11-06T13:20:28;12.20;99.90
21815;DHT22;11069;48.988;8.450;2022-11-06T13:23:06;12.10;99.90
21815;DHT22;11069;48.988;8.450;2022-11-06T13:25:51;12.10;99.90
21815;DHT22;11069;48.988;8.450;2022-11-06T13:31:09;12.20;99.90
21815;DHT22;11069;48.988;8.450;2022-11-06T13:33:46;12.20;99.90
21815;DHT22;11069;48.988;8.450;2022-11-06T13:36:17;12.20;99.90
21815;DHT22;11069;48.988;8.450;2022-11-06T13:38:51;12.10;99.90
21815;DHT22;11069;48.988;8.450;2022-11-06T13:41:28;11.90;99.90
21815;DHT22;11069;48.988;8.450;2022-11-06T13:44:02;11.80;99.90
21815;DHT22;11069;48.988;8.450;2022-11-06T13:46:42;11.80;99.90
21815;DHT22;11069;48.988;8.450;2022-11-06T14:01:01;11.20;99.90
21815;DHT22;11069;48.988;8.450;2022-11-06T14:06:08;11.30;99.90
21815;DHT22;11069;48.988;8.450;2022-11-06T14:08:39;11.40;99.90
21815;DHT22;11069;48.988;8.450;2022-11-06T14:11:12;11.30;99.90
21815;DHT22;11069;48.988;8.450;2022-11-06T14:13:39;11.30;99.90
21815;DHT22;11069;48.988;8.450;2022-11-06T14:16:22;11.20;99.90
21815;DHT22;11069;48.988;8.450;2022-11-06T14:18:59;11.30;99.90
21815;DHT22;11069;48.988;8.450;2022-11-06T14:26:43;11.40;99.90
21815;DHT22;11069;48.988;8.450;2022-11-06T14:32:06;11.50;99.90
21815;DHT22;11069;48.988;8.450;2022-11-06T14:34:41;11.50;99.90
21815;DHT22;11069;48.988;8.450;2022-11-06T14:44:49;11.20;99.90
21815;DHT22;11069;48.988;8.450;2022-11-06T14:50:36;10.90;99.90
21815;DHT22;11069;48.988;8.450;2022-11-06T14:53:03;10.70;99.90
21815;DHT22;11069;48.988;8.450;2022-11-06T14:55:45;10.60;99.90
21815;DHT22;11069;48.988;8.450;2022-11-06T14:58:32;10.60;99.90
21815;DHT22;11069;48.988;8.450;2022-11-06T15:06:40;10.50;99.90
21815;DHT22;11069;48.988;8.450;2022-11-06T15:11:53;10.30;99.90
21815;DHT22;11069;48.988;8.450;2022-11-06T15:16:54;10.10;99.90
21815;DHT22;11069;48.988;8.450;2022-11-06T15:19:27;10.10;99.90
21815;DHT22;11069;48.988;8.450;2022-11-06T15:27:43;9.90;99.90
21815;DHT22;11069;48.988;8.450;2022-11-06T15:30:15;9.70;99.90
21815;DHT22;11069;48.988;8.450;2022-11-06T15:32:43;9.70;99.90
21815;DHT22;11069;48.988;8.450;2022-11-06T15:35:22;9.70;99.90
21815;DHT22;11069;48.988;8.450;2022-11-06T15:38:01;9.60;99.90
21815;DHT22;11069;48.988;8.450;2022-11-06T15:40:34;9.50;99.90
21815;DHT22;11069;48.988;8.450;2022-11-06T15:46:06;9.30;99.90
21815;DHT22;11069;48.988;8.450;2022-11-06T15:48:38;9.20;99.90
21815;DHT22;11069;48.988;8.450;2022-11-06T15:51:19;9.20;99.90
21815;DHT22;11069;48.988;8.450;2022-11-06T15:53:45;9.20;99.90
21815;DHT22;11069;48.988;8.450;2022-11-06T15:56:12;9.20;99.90
21815;DHT22;11069;48.988;8.450;2022-11-06T15:58:39;9.10;99.90
21815;DHT22;11069;48.988;8.450;2022-11-06T16:01:06;9.20;99.90
21815;DHT22;11069;48.988;8.450;2022-11-06T16:03:43;9.20;99.90
21815;DHT22;11069;48.988;8.450;2022-11-06T16:06:09;9.10;99.90
21815;DHT22;11069;48.988;8.450;2022-11-06T16:08:36;9.10;99.90
21815;DHT22;11069;48.988;8.450;2022-11-06T16:11:02;9.10;99.90
21815;DHT22;11069;48.988;8.450;2022-11-06T16:13:29;9.10;99.90
21815;DHT22;11069;48.988;8.450;2022-11-06T16:15:56;9.00;99.90
21815;DHT22;11069;48.988;8.450;2022-11-06T16:18:28;8.90;99.90
21815;DHT22;11069;48.988;8.450;2022-11-06T16:26:14;8.70;99.90
21815;DHT22;11069;48.988;8.450;2022-11-06T16:28:42;8.70;99.90
21815;DHT22;11069;48.988;8.450;2022-11-06T16:31:13;8.70;99.90
21815;DHT22;11069;48.988;8.450;2022-11-06T16:33:40;8.80;99.90
21815;DHT22;11069;48.988;8.450;2022-11-06T16:36:14;8.90;99.90
21815;DHT22;11069;48.988;8.450;2022-11-06T16:38:44;8.90;99.90
21815;DHT22;11069;48.988;8.450;2022-11-06T16:41:15;8.90;99.90
21815;DHT22;11069;48.988;8.450;2022-11-06T16:44:22;8.90;99.90
21815;DHT22;11069;48.988;8.450;2022-11-06T16:49:34;8.70;99.90
21815;DHT22;11069;48.988;8.450;2022-11-06T16:52:00;8.70;99.90
21815;DHT22;11069;48.988;8.450;2022-11-06T16:54:26;8.70;99.90
21815;DHT22;11069;48.988;8.450;2022-11-06T16:57:07;8.70;99.90
21815;DHT22;11069;48.988;8.450;2022-11-06T16:59:34;8.70;99.90
21815;DHT22;11069;48.988;8.450;2022-11-06T17:02:00;8.70;99.90
21815;DHT22;11069;48.988;8.450;2022-11-06T17:04:26;8.70;99.90
21815;DHT22;11069;48.988;8.450;2022-11-06T17:06:55;8.70;99.90
21815;DHT22;11069;48.988;8.450;2022-11-06T17:11:56;8.70;99.90
21815;DHT22;11069;48.988;8.450;2022-11-06T17:14:23;8.60;99.90
21815;DHT22;11069;48.988;8.450;2022-11-06T17:16:57;8.50;99.90
21815;DHT22;11069;48.988;8.450;2022-11-06T17:19:24;8.50;99.90
21815;DHT22;11069;48.988;8.450;2022-11-06T17:21:50;8.40;99.90
21815;DHT22;11069;48.988;8.450;2022-11-06T17:24:16;8.40;99.90
21815;DHT22;11069;48.988;8.450;2022-11-06T17:26:48;8.40;99.90
21815;DHT22;11069;48.988;8.450;2022-11-06T17:29:14;8.40;99.90
21815;DHT22;11069;48.988;8.450;2022-11-06T17:31:39;8.30;99.90
21815;DHT22;11069;48.988;8.450;2022-11-06T17:34:05;8.50;99.90
21815;DHT22;11069;48.988;8.450;2022-11-06T17:36:31;8.40;99.90
21815;DHT22;11069;48.988;8.450;2022-11-06T17:38:58;8.40;99.90
21815;DHT22;11069;48.988;8.450;2022-11-06T17:41:24;8.50;99.90
21815;DHT22;11069;48.988;8.450;2022-11-06T17:44:06;8.50;99.90
21815;DHT22;11069;48.988;8.450;2022-11-06T17:46:36;8.40;99.90
21815;DHT22;11069;48.988;8.450;2022-11-06T17:49:02;8.30;99.90
21815;DHT22;11069;48.988;8.450;2022-11-06T17:51:29;8.30;99.90
21815;DHT22;11069;48.988;8.450;2022-11-06T17:54:14;8.30;99.90
21815;DHT22;11069;48.988;8.450;2022-11-06T17:56:40;8.30;99.90
21815;DHT22;11069;48.988;8.450;2022-11-06T17:59:07;8.20;99.90
21815;DHT22;11069;48.988;8.450;2022-11-06T18:01:33;8.20;99.90
21815;DHT22;11069;48.988;8.450;2022-11-06T18:03:58;8.20;99.90
21815;DHT22;11069;48.988;8.450;2022-11-06T18:06:24;8.30;99.90
21815;DHT22;11069;48.988;8.450;2022-11-06T18:08:54;8.30;99.90
21815;DHT22;11069;48.988;8.450;2022-11-06T18:11:21;8.30;99.90
21815;DHT22;11069;48.988;8.450;2022-11-06T18:13:46;8.30;99.90
21815;DHT22;11069;48.988;8.450;2022-11-06T18:16:17;8.40;99.90
21815;DHT22;11069;48.988;8.450;2022-11-06T18:18:43;8.50;99.90
21815;DHT22;11069;48.988;8.450;2022-11-06T18:21:09;8.60;99.90
21815;DHT22;11069;48.988;8.450;2022-11-06T18:23:35;8.50;99.90
21815;DHT22;11069;48.988;8.450;2022-11-06T18:26:01;8.50;99.90
21815;DHT22;11069;48.988;8.450;2022-11-06T18:28:26;8.50;99.90
21815;DHT22;11069;48.988;8.450;2022-11-06T18:30:52;8.60;99.90
21815;DHT22;11069;48.988;8.450;2022-11-06T18:33:18;8.60;99.90
21815;DHT22;11069;48.988;8.450;2022-11-06T18:35:44;8.70;99.90
21815;DHT22;11069;48.988;8.450;2022-11-06T18:38:12;8.60;99.90
21815;DHT22;11069;48.988;8.450;2022-11-06T18:40:40;8.60;99.90
21815;DHT22;11069;48.988;8.450;2022-11-06T18:43:06;8.50;99.90
21815;DHT22;11069;48.988;8.450;2022-11-06T18:45:31;8.50;99.90
21815;DHT22;11069;48.988;8.450;2022-11-06T18:47:57;8.50;99.90
21815;DHT22;11069;48.988;8.450;2022-11-06T18:50:23;8.40;99.90
21815;DHT22;11069;48.988;8.450;2022-11-06T18:52:49;8.40;99.90
21815;DHT22;11069;48.988;8.450;2022-11-06T18:55:14;8.40;99.90
21815;DHT22;11069;48.988;8.450;2022-11-06T18:57:40;8.40;99.90
21815;DHT22;11069;48.988;8.450;2022-11-06T19:00:06;8.50;99.90
21815;DHT22;11069;48.988;8.450;2022-11-06T19:02:32;8.50;99.90